Time;durP1;ratioP1;P1;durP2;ratioP2;P2;SDS_P1;SDS_P2;PMS_P1;PMS_P2;Temp;Humidity;BMP_temperature;BMP_pressure;BME280_temperature;BME280_humidity;BME280_pressure;Samples;Min_cycle;Max_cycle;Signal;HPM_P1;HPM_P2
2023/01/20 00:01:38;;;;;;;13.85;8.10;;;0.80;47.10;;;;;;5008644;28;46572;-62
2023/01/20 00:04:04;;;;;;;13.95;7.97;;;0.80;46.80;;;;;;5006175;28;46469;-61
2023/01/20 00:06:30;;;;;;;15.65;7.97;;;0.80;46.80;;;;;;5007084;28;46471;-61
2023/01/20 00:08:59;;;;;;;11.30;6.40;;;0.80;46.90;;;;;;5007225;28;46415;-61
2023/01/20 00:11:25;;;;;;;12.85;7.25;;;0.70;47.00;;;;;;5006448;28;46394;-62
2023/01/20 00:13:56;;;;;;;8.75;5.95;;;0.80;47.00;;;;;;5007398;28;48209;-61
2023/01/20 00:16:22;;;;;;;15.35;7.03;;;0.70;47.00;;;;;;5005846;28;46481;-63
2023/01/20 00:18:48;;;;;;;13.55;7.72;;;0.70;46.90;;;;;;5006709;28;45945;-61
2023/01/20 00:21:17;;;;;;;9.83;6.40;;;0.70;46.80;;;;;;5009698;28;46477;-61
2023/01/20 00:23:44;;;;;;;12.65;6.63;;;0.70;46.90;;;;;;5009346;28;46445;-61
2023/01/20 00:26:13;;;;;;;11.82;6.38;;;0.70;47.00;;;;;;5004873;28;46706;-62
2023/01/20 00:28:38;;;;;;;10.20;5.65;;;0.70;47.10;;;;;;5006407;28;46406;-62
2023/01/20 00:31:13;;;;;;;10.87;6.80;;;0.70;47.10;;;;;;5008441;28;46501;-64
2023/01/20 00:33:39;;;;;;;11.15;6.85;;;0.70;47.10;;;;;;5006037;28;46374;-63
2023/01/20 00:36:06;;;;;;;11.30;6.40;;;0.70;47.20;;;;;;5006775;28;46416;-63
2023/01/20 00:38:31;;;;;;;10.57;6.60;;;0.70;46.90;;;;;;5007147;28;46462;-63
2023/01/20 00:40:57;;;;;;;10.97;6.60;;;0.80;46.90;;;;;;5005070;28;45903;-62
2023/01/20 00:43:23;;;;;;;11.10;6.90;;;0.70;46.60;;;;;;5006884;28;46761;-61
2023/01/20 00:45:48;;;;;;;10.20;6.50;;;0.80;46.70;;;;;;5006652;28;46455;-62
2023/01/20 00:48:14;;;;;;;9.70;5.73;;;0.70;46.70;;;;;;5005644;28;46805;-61
2023/01/20 00:50:39;;;;;;;10.97;6.50;;;0.70;46.90;;;;;;5007047;28;46657;-61
2023/01/20 00:53:05;;;;;;;9.30;5.50;;;0.70;47.10;;;;;;5007378;28;46885;-61
2023/01/20 00:55:31;;;;;;;10.23;6.67;;;0.60;47.10;;;;;;5008898;28;46367;-61
2023/01/20 00:57:56;;;;;;;11.57;6.50;;;0.80;47.40;;;;;;5007287;28;46446;-62
2023/01/20 01:00:22;;;;;;;10.77;6.53;;;0.60;47.30;;;;;;5007741;28;46311;-62
2023/01/20 01:02:47;;;;;;;10.87;6.60;;;0.60;47.40;;;;;;5006290;28;46985;-62
2023/01/20 01:05:13;;;;;;;12.10;6.97;;;0.60;47.40;;;;;;5007886;28;46413;-62
2023/01/20 01:07:38;;;;;;;10.80;6.33;;;0.60;47.50;;;;;;5006669;28;46328;-62
2023/01/20 01:10:05;;;;;;;12.30;6.27;;;0.60;47.60;;;;;;5007676;28;46355;-61
2023/01/20 01:12:30;;;;;;;11.55;6.68;;;0.60;47.70;;;;;;5005530;28;47845;-62
2023/01/20 01:14:56;;;;;;;11.17;6.20;;;0.60;47.70;;;;;;5006752;28;46865;-64
2023/01/20 01:17:22;;;;;;;10.87;6.37;;;0.60;47.90;;;;;;5006862;28;46428;-61
2023/01/20 01:19:50;;;;;;;8.73;5.70;;;0.50;47.90;;;;;;5008890;28;46485;-64
2023/01/20 01:22:16;;;;;;;8.63;5.60;;;0.50;48.10;;;;;;5004430;28;46319;-62
2023/01/20 01:24:44;;;;;;;10.07;6.07;;;0.50;48.10;;;;;;5005733;28;46389;-63
2023/01/20 01:27:10;;;;;;;10.45;5.80;;;0.50;48.30;;;;;;5007256;28;46379;-63
2023/01/20 01:29:36;;;;;;;12.73;6.75;;;0.50;48.30;;;;;;5004088;28;46453;-63
2023/01/20 01:32:02;;;;;;;10.23;5.80;;;0.40;48.30;;;;;;5005903;28;46428;-61
2023/01/20 01:34:27;;;;;;;12.30;7.00;;;0.50;48.30;;;;;;5005757;28;46430;-62
2023/01/20 01:36:53;;;;;;;14.30;7.60;;;0.50;48.30;;;;;;5006680;28;46501;-62
2023/01/20 01:39:18;;;;;;;9.73;6.43;;;0.40;48.30;;;;;;5007564;28;45963;-61
2023/01/20 01:41:44;;;;;;;11.93;6.30;;;0.40;48.30;;;;;;5020305;28;48234;-61
2023/01/20 01:44:12;;;;;;;11.13;6.20;;;0.40;48.40;;;;;;5004604;28;46667;-61
2023/01/20 01:46:39;;;;;;;11.55;6.63;;;0.50;48.50;;;;;;5004519;28;46365;-61
2023/01/20 01:49:18;;;;;;;9.45;6.10;;;0.40;48.40;;;;;;5004502;28;46316;-62
2023/01/20 01:51:50;;;;;;;13.57;6.70;;;0.40;48.60;;;;;;5005998;28;47382;-63
2023/01/20 01:54:23;;;;;;;12.73;7.50;;;0.40;48.60;;;;;;5006293;28;46719;-61
2023/01/20 01:56:50;;;;;;;11.80;7.15;;;0.40;48.70;;;;;;5010330;28;46305;-62
2023/01/20 01:59:17;;;;;;;11.85;6.55;;;0.40;48.90;;;;;;5004390;28;46485;-62
2023/01/20 02:01:48;;;;;;;11.50;6.53;;;0.50;49.10;;;;;;5004140;28;46430;-60
2023/01/20 02:04:16;;;;;;;12.40;6.75;;;0.40;48.90;;;;;;5003031;28;46679;-62
2023/01/20 02:06:46;;;;;;;10.93;6.72;;;0.30;48.90;;;;;;5005343;28;46774;-63
2023/01/20 02:09:12;;;;;;;9.57;5.85;;;0.30;48.90;;;;;;5003465;28;46485;-64
2023/01/20 02:11:44;;;;;;;11.68;6.40;;;0.30;48.90;;;;;;5004616;28;46569;-61
2023/01/20 02:14:10;;;;;;;9.98;6.30;;;0.30;48.90;;;;;;5004414;28;46678;-63
2023/01/20 02:17:03;;;;;;;12.00;7.03;;;0.30;48.80;;;;;;5006660;28;46750;-63
2023/01/20 02:19:34;;;;;;;11.25;6.05;;;0.30;48.90;;;;;;5006362;28;46402;-63
2023/01/20 02:22:32;;;;;;;12.60;6.50;;;0.30;49.00;;;;;;5005247;28;48278;-61
2023/01/20 02:25:23;;;;;;;17.35;6.70;;;0.20;49.00;;;;;;5005105;28;46517;-65
2023/01/20 02:28:29;;;;;;;10.95;6.65;;;0.20;49.00;;;;;;5005228;28;46359;-61
2023/01/20 02:31:08;;;;;;;16.02;7.32;;;0.20;49.00;;;;;;5005867;28;46429;-62
2023/01/20 02:33:58;;;;;;;14.13;6.55;;;0.20;49.10;;;;;;5004727;28;46661;-62
2023/01/20 02:36:32;;;;;;;11.25;6.10;;;0.20;49.20;;;;;;4992886;28;46682;-62
2023/01/20 02:39:26;;;;;;;9.82;5.75;;;0.10;49.10;;;;;;5006219;28;45985;-63
2023/01/20 02:42:06;;;;;;;10.63;6.07;;;0.10;49.10;;;;;;5006188;28;46307;-61
2023/01/20 02:44:58;;;;;;;9.82;6.40;;;0.10;49.00;;;;;;5005075;28;46478;-60
2023/01/20 02:47:44;;;;;;;10.10;6.20;;;0.10;49.00;;;;;;5004148;28;46397;-63
2023/01/20 02:50:13;;;;;;;11.00;5.82;;;0.00;48.90;;;;;;5004528;28;46651;-61
2023/01/20 02:52:44;;;;;;;12.25;7.07;;;0.00;49.00;;;;;;5004040;28;46490;-62
2023/01/20 02:55:21;;;;;;;14.18;6.88;;;0.00;48.90;;;;;;5006036;28;46327;-63
2023/01/20 02:57:59;;;;;;;9.63;6.40;;;0.00;48.80;;;;;;5008286;28;45906;-62
2023/01/20 03:00:31;;;;;;;12.43;7.20;;;0.00;48.80;;;;;;5008934;28;46375;-62
2023/01/20 03:02:59;;;;;;;13.73;7.07;;;0.00;48.80;;;;;;5009031;28;46460;-61
2023/01/20 03:05:30;;;;;;;14.25;6.90;;;-0.10;48.70;;;;;;5007731;28;46074;-61
2023/01/20 03:07:57;;;;;;;9.65;6.18;;;0.00;48.90;;;;;;5006847;28;46483;-61
2023/01/20 03:10:26;;;;;;;10.68;6.35;;;-0.10;48.90;;;;;;5007735;28;45878;-62
2023/01/20 03:12:56;;;;;;;11.32;6.32;;;-0.10;48.90;;;;;;5008205;28;46472;-61
2023/01/20 03:15:30;;;;;;;11.65;6.00;;;-0.10;48.90;;;;;;5006180;28;47184;-64
2023/01/20 03:17:57;;;;;;;10.32;5.82;;;-0.10;49.10;;;;;;5004846;28;46576;-62
2023/01/20 03:20:22;;;;;;;10.30;5.85;;;-0.10;49.10;;;;;;5006065;28;46559;-61
2023/01/20 03:22:48;;;;;;;9.33;5.03;;;-0.10;49.10;;;;;;5007140;28;46566;-63
2023/01/20 03:25:16;;;;;;;12.50;6.17;;;-0.10;49.00;;;;;;5006359;28;46356;-63
2023/01/20 03:27:42;;;;;;;9.07;5.78;;;-0.10;49.10;;;;;;5006840;28;45864;-61
2023/01/20 03:30:15;;;;;;;8.77;5.60;;;-0.10;49.10;;;;;;5007240;28;46356;-63
2023/01/20 03:32:44;;;;;;;10.90;6.28;;;-0.10;49.00;;;;;;5008293;28;46366;-63
2023/01/20 03:35:11;;;;;;;13.10;6.22;;;0.00;48.90;;;;;;5005568;28;46840;-63
2023/01/20 03:37:37;;;;;;;9.70;5.47;;;0.10;48.90;;;;;;5004747;28;46529;-64
2023/01/20 03:40:03;;;;;;;11.00;6.30;;;0.10;48.80;;;;;;5007216;28;46430;-62
2023/01/20 03:42:36;;;;;;;10.27;6.05;;;0.10;48.60;;;;;;5006284;28;46521;-62
2023/01/20 03:45:28;;;;;;;11.23;6.43;;;0.20;48.50;;;;;;5005143;28;47557;-63
2023/01/20 03:48:21;;;;;;;8.90;4.95;;;0.30;48.20;;;;;;5009393;28;46366;-62
2023/01/20 03:50:55;;;;;;;12.68;6.32;;;0.30;47.90;;;;;;5007925;28;46571;-62
2023/01/20 03:53:44;;;;;;;12.10;6.07;;;0.40;47.80;;;;;;5004567;28;46389;-62
2023/01/20 03:56:34;;;;;;;12.35;5.93;;;0.40;47.70;;;;;;5006721;28;46304;-62
2023/01/20 03:59:01;;;;;;;10.95;6.32;;;0.40;47.70;;;;;;5007203;28;46490;-62
2023/01/20 04:01:35;;;;;;;11.98;6.22;;;0.40;47.70;;;;;;5006944;28;46382;-63
2023/01/20 04:04:04;;;;;;;13.77;6.65;;;0.50;47.80;;;;;;5007418;28;46477;-64
2023/01/20 04:06:32;;;;;;;10.80;5.82;;;0.50;47.80;;;;;;5009601;28;46320;-61
2023/01/20 04:09:03;;;;;;;11.45;6.25;;;0.50;47.80;;;;;;5005001;28;46477;-63
2023/01/20 04:11:28;;;;;;;9.75;5.78;;;0.60;48.00;;;;;;5008406;28;46498;-63
2023/01/20 04:13:54;;;;;;;11.90;5.97;;;0.60;48.00;;;;;;5008618;28;46595;-62
2023/01/20 04:16:22;;;;;;;12.43;7.03;;;0.60;48.00;;;;;;5005643;28;46375;-62
2023/01/20 04:18:49;;;;;;;9.32;5.78;;;0.70;48.00;;;;;;5006344;28;46880;-62
2023/01/20 04:21:37;;;;;;;8.57;5.60;;;0.70;47.90;;;;;;5007738;28;46474;-61
2023/01/20 04:24:32;;;;;;;9.10;5.45;;;0.70;48.00;;;;;;5001699;28;46556;-63
2023/01/20 04:26:57;;;;;;;10.95;5.25;;;0.70;48.00;;;;;;5007292;28;46274;-62
2023/01/20 04:29:23;;;;;;;11.53;5.23;;;0.80;47.90;;;;;;5007198;28;46434;-61
2023/01/20 04:31:48;;;;;;;8.37;5.57;;;0.80;47.70;;;;;;5007958;28;46323;-62
2023/01/20 04:34:14;;;;;;;8.73;5.70;;;0.80;47.50;;;;;;5005718;28;46484;-62
2023/01/20 04:36:40;;;;;;;9.70;5.40;;;0.90;48.50;;;;;;5007677;28;47489;-63
2023/01/20 04:39:06;;;;;;;10.75;5.70;;;0.90;47.10;;;;;;5006929;28;46744;-61
2023/01/20 04:41:32;;;;;;;8.50;5.00;;;0.90;47.10;;;;;;5008619;28;46505;-62
2023/01/20 04:43:57;;;;;;;6.67;4.70;;;0.90;47.00;;;;;;5007791;28;46548;-61
2023/01/20 04:46:38;;;;;;;8.10;4.85;;;0.80;47.00;;;;;;4983117;28;46384;-61
2023/01/20 04:49:04;;;;;;;6.47;4.40;;;0.80;47.20;;;;;;5007622;28;46769;-62
2023/01/20 04:51:31;;;;;;;8.80;5.20;;;0.70;47.30;;;;;;5007987;28;46457;-62
2023/01/20 04:53:58;;;;;;;12.40;5.43;;;0.70;47.20;;;;;;5008684;28;46649;-62
2023/01/20 04:56:23;;;;;;;9.00;5.60;;;0.70;47.20;;;;;;5007430;28;46567;-63
2023/01/20 04:58:49;;;;;;;9.53;4.97;;;0.70;47.10;;;;;;5006529;28;46381;-64
2023/01/20 05:01:15;;;;;;;10.40;4.80;;;0.70;47.10;;;;;;5006431;28;46497;-64
2023/01/20 05:03:40;;;;;;;10.17;5.77;;;0.70;47.20;;;;;;5005996;28;46456;-63
2023/01/20 05:06:08;;;;;;;11.20;5.77;;;0.70;47.20;;;;;;5005382;28;47051;-63
2023/01/20 05:08:33;;;;;;;11.57;4.55;;;0.70;47.20;;;;;;5007318;28;46424;-64
2023/01/20 05:10:59;;;;;;;11.73;5.70;;;0.70;47.20;;;;;;5003379;28;46766;-63
2023/01/20 05:13:24;;;;;;;8.30;5.13;;;0.70;47.30;;;;;;5006275;28;46513;-62
2023/01/20 05:15:50;;;;;;;9.30;5.30;;;0.70;47.20;;;;;;5006075;28;46983;-63
2023/01/20 05:18:16;;;;;;;8.93;5.47;;;0.70;47.20;;;;;;5005716;28;46387;-60
2023/01/20 05:20:45;;;;;;;8.50;5.60;;;0.70;47.30;;;;;;5007756;28;46346;-61
2023/01/20 05:23:10;;;;;;;11.05;5.80;;;0.70;47.50;;;;;;5008351;28;46696;-61
2023/01/20 05:25:36;;;;;;;10.13;5.63;;;0.70;47.60;;;;;;5007259;28;47189;-61
2023/01/20 05:28:01;;;;;;;10.17;6.73;;;0.70;47.80;;;;;;5008391;28;46290;-62
2023/01/20 05:30:27;;;;;;;10.40;5.70;;;0.70;47.90;;;;;;5007624;28;46416;-62
2023/01/20 05:32:52;;;;;;;8.83;6.23;;;0.70;48.40;;;;;;5008037;28;46778;-61
2023/01/20 05:35:18;;;;;;;9.23;6.50;;;0.70;47.80;;;;;;5006335;28;46389;-62
2023/01/20 05:37:44;;;;;;;19.10;6.80;;;0.70;47.80;;;;;;5006112;28;46457;-62
2023/01/20 05:40:10;;;;;;;10.50;6.90;;;0.60;48.00;;;;;;5003579;28;45783;-63
2023/01/20 05:42:36;;;;;;;13.52;7.38;;;0.60;47.90;;;;;;5005108;28;46576;-64
2023/01/20 05:45:01;;;;;;;13.67;7.50;;;0.60;48.00;;;;;;5004472;28;46559;-63
2023/01/20 05:47:27;;;;;;;9.77;6.70;;;0.60;48.00;;;;;;5006556;28;46667;-62
2023/01/20 05:49:53;;;;;;;12.83;6.80;;;0.50;48.20;;;;;;5004857;28;46454;-63
2023/01/20 05:52:18;;;;;;;12.77;8.33;;;0.50;48.30;;;;;;5006120;28;46512;-61
2023/01/20 05:54:44;;;;;;;14.90;7.00;;;0.50;48.40;;;;;;5004634;28;46362;-63
2023/01/20 05:57:10;;;;;;;12.00;8.07;;;0.50;48.40;;;;;;5005874;28;46412;-63
2023/01/20 05:59:35;;;;;;;14.03;8.47;;;0.50;48.50;;;;;;5004912;28;46456;-64
2023/01/20 06:02:01;;;;;;;14.20;8.40;;;0.50;48.60;;;;;;5005853;28;45972;-62
2023/01/20 06:04:26;;;;;;;13.93;8.33;;;0.50;48.60;;;;;;5006228;28;46460;-62
2023/01/20 06:06:52;;;;;;;13.50;9.07;;;0.50;48.70;;;;;;5004373;28;46541;-62
2023/01/20 06:09:18;;;;;;;13.30;8.70;;;0.50;48.70;;;;;;5004990;28;46410;-62
2023/01/20 06:11:43;;;;;;;13.07;8.97;;;0.40;48.80;;;;;;5005076;28;46881;-62
2023/01/20 06:14:09;;;;;;;15.00;8.87;;;0.50;49.00;;;;;;5005799;28;46425;-61
2023/01/20 06:16:34;;;;;;;13.03;7.80;;;0.40;49.10;;;;;;5004673;28;46278;-63
2023/01/20 06:19:00;;;;;;;14.37;8.27;;;0.40;49.20;;;;;;5009000;28;46410;-63
2023/01/20 06:21:26;;;;;;;13.77;8.37;;;0.40;49.20;;;;;;5007363;28;46319;-62
2023/01/20 06:23:53;;;;;;;15.97;9.23;;;0.50;49.10;;;;;;5005151;28;46420;-63
2023/01/20 06:26:18;;;;;;;12.27;8.10;;;0.60;49.10;;;;;;5006275;28;46462;-64
2023/01/20 06:28:44;;;;;;;12.80;8.00;;;0.50;49.10;;;;;;5005978;28;46455;-63
2023/01/20 06:31:15;;;;;;;11.00;7.93;;;0.50;49.20;;;;;;5002340;28;46521;-63
2023/01/20 06:33:41;;;;;;;17.02;8.30;;;0.50;49.40;;;;;;5003889;28;47139;-63
2023/01/20 06:36:07;;;;;;;14.67;8.70;;;0.40;49.40;;;;;;5003250;28;46445;-63
2023/01/20 06:38:34;;;;;;;19.63;11.10;;;0.40;49.40;;;;;;5005469;28;46754;-63
2023/01/20 06:41:02;;;;;;;19.58;10.75;;;0.40;49.60;;;;;;5005629;28;45870;-63
2023/01/20 06:43:29;;;;;;;15.35;10.95;;;0.40;49.80;;;;;;5004133;28;47455;-64
2023/01/20 06:45:59;;;;;;;15.48;9.80;;;0.40;49.90;;;;;;5003867;28;46382;-63
2023/01/20 06:48:24;;;;;;;20.98;12.40;;;0.40;50.00;;;;;;5005727;28;45875;-65
2023/01/20 06:50:50;;;;;;;32.73;23.87;;;0.40;50.00;;;;;;5004988;28;46381;-64
2023/01/20 06:53:16;;;;;;;29.20;18.97;;;0.40;50.10;;;;;;5005053;28;46993;-63
2023/01/20 06:55:42;;;;;;;16.30;12.00;;;0.40;50.20;;;;;;5005702;28;46462;-64
2023/01/20 06:58:07;;;;;;;24.67;17.00;;;0.50;50.20;;;;;;5002858;28;46389;-62
2023/01/20 07:00:33;;;;;;;95.73;40.00;;;0.40;50.00;;;;;;5003082;28;45903;-62
2023/01/20 07:02:58;;;;;;;116.80;49.20;;;0.60;50.40;;;;;;5003838;28;46378;-63
2023/01/20 07:05:24;;;;;;;53.33;24.97;;;0.40;50.20;;;;;;5002410;28;46397;-62
2023/01/20 07:07:49;;;;;;;106.07;40.70;;;0.40;50.10;;;;;;5005386;28;46378;-63
2023/01/20 07:10:15;;;;;;;172.63;60.43;;;0.40;50.30;;;;;;4998100;28;46472;-62
2023/01/20 07:12:41;;;;;;;102.10;38.70;;;0.50;50.20;;;;;;4998429;28;46435;-62
2023/01/20 07:15:07;;;;;;;100.80;38.60;;;0.50;49.90;;;;;;5002194;28;46453;-62
2023/01/20 07:17:32;;;;;;;45.10;21.92;;;0.50;49.80;;;;;;5000192;28;47240;-63
2023/01/20 07:20:01;;;;;;;27.33;13.93;;;0.50;49.80;;;;;;5002278;28;46606;-62
2023/01/20 07:22:26;;;;;;;24.08;12.52;;;0.50;49.90;;;;;;4999466;28;46485;-62
2023/01/20 07:24:52;;;;;;;23.93;12.43;;;0.50;50.00;;;;;;5000749;28;46386;-61
2023/01/20 07:27:18;;;;;;;20.43;12.10;;;0.50;49.90;;;;;;4999021;28;46440;-63
2023/01/20 07:29:43;;;;;;;27.23;13.83;;;0.50;49.90;;;;;;5001451;28;46395;-62
2023/01/20 07:32:09;;;;;;;30.20;16.10;;;0.50;50.00;;;;;;5003689;28;46399;-61
2023/01/20 07:34:34;;;;;;;26.43;14.77;;;0.50;50.10;;;;;;5000629;28;45896;-63
2023/01/20 07:37:01;;;;;;;39.27;20.27;;;0.60;50.10;;;;;;5000598;28;46555;-63
2023/01/20 07:39:26;;;;;;;42.83;20.63;;;0.60;50.00;;;;;;4998811;28;46357;-62
2023/01/20 07:41:52;;;;;;;47.17;25.97;;;0.60;50.10;;;;;;5001400;28;46464;-63
2023/01/20 07:44:18;;;;;;;23.00;14.20;;;0.60;50.20;;;;;;5003392;28;46460;-64
2023/01/20 07:46:43;;;;;;;15.90;9.90;;;0.70;50.00;;;;;;5004267;28;46572;-63
2023/01/20 07:49:10;;;;;;;12.90;8.80;;;0.70;50.00;;;;;;5005374;28;46576;-62
2023/01/20 07:51:36;;;;;;;17.85;10.52;;;0.80;50.00;;;;;;5004511;28;46055;-62
2023/01/20 07:54:03;;;;;;;12.70;8.23;;;0.80;50.00;;;;;;5005146;28;46382;-63
2023/01/20 07:56:29;;;;;;;11.70;8.07;;;0.80;49.90;;;;;;5002046;28;46464;-63
2023/01/20 07:58:55;;;;;;;12.10;8.27;;;0.90;49.90;;;;;;5005215;28;46414;-63
2023/01/20 08:01:23;;;;;;;13.40;9.00;;;1.00;49.90;;;;;;5001528;28;46258;-63
2023/01/20 08:03:49;;;;;;;19.92;9.45;;;1.10;49.70;;;;;;5008165;28;46688;-63
2023/01/20 08:06:17;;;;;;;14.55;9.27;;;1.10;49.30;;;;;;5004850;28;46475;-62
2023/01/20 08:08:43;;;;;;;14.20;8.82;;;1.20;49.40;;;;;;5003375;28;46413;-60
2023/01/20 08:11:12;;;;;;;13.43;8.97;;;1.20;49.40;;;;;;5007014;28;47281;-61
2023/01/20 08:13:38;;;;;;;12.88;9.88;;;1.20;49.10;;;;;;5005081;28;46150;-61
2023/01/20 08:16:06;;;;;;;14.18;9.20;;;1.30;49.30;;;;;;5004550;28;46359;-62
2023/01/20 08:18:34;;;;;;;13.55;8.85;;;1.30;49.30;;;;;;5003213;28;46825;-64
2023/01/20 08:21:00;;;;;;;12.45;9.05;;;1.40;49.30;;;;;;5003091;28;48006;-65
2023/01/20 08:23:26;;;;;;;14.73;9.15;;;1.50;49.40;;;;;;5001982;28;46670;-65
2023/01/20 08:26:00;;;;;;;16.17;10.65;;;1.40;49.30;;;;;;5004015;28;46446;-71
2023/01/20 08:28:27;;;;;;;16.80;10.25;;;1.50;49.40;;;;;;5004148;28;46370;-63
2023/01/20 08:30:54;;;;;;;21.90;12.25;;;1.40;50.70;;;;;;5002721;28;46473;-62
2023/01/20 08:33:19;;;;;;;16.27;10.98;;;1.40;50.80;;;;;;5004314;28;46471;-62
2023/01/20 08:35:45;;;;;;;13.03;9.70;;;1.40;49.40;;;;;;5002971;28;46453;-65
2023/01/20 08:38:11;;;;;;;11.25;7.88;;;1.40;49.40;;;;;;5006339;28;46552;-61
2023/01/20 08:40:40;;;;;;;11.20;7.67;;;1.40;49.60;;;;;;5002013;28;46762;-63
2023/01/20 08:43:06;;;;;;;11.65;7.50;;;1.40;49.80;;;;;;5001488;28;46663;-62
2023/01/20 08:45:32;;;;;;;12.93;8.37;;;1.40;50.00;;;;;;5003777;28;46472;-62
2023/01/20 08:47:57;;;;;;;14.40;8.90;;;1.40;50.20;;;;;;5003687;28;47174;-62
2023/01/20 08:50:23;;;;;;;12.70;8.27;;;1.40;50.20;;;;;;5004345;28;46464;-63
2023/01/20 08:52:49;;;;;;;17.33;10.00;;;1.60;50.00;;;;;;5003684;28;45882;-62
2023/01/20 08:55:15;;;;;;;19.17;10.10;;;1.70;49.90;;;;;;5002704;28;46398;-64
2023/01/20 08:57:40;;;;;;;17.63;9.47;;;1.80;49.60;;;;;;5003953;28;46788;-62
2023/01/20 09:00:08;;;;;;;14.10;8.93;;;1.90;49.40;;;;;;5002045;28;46537;-63
2023/01/20 09:02:33;;;;;;;14.00;9.43;;;2.00;49.20;;;;;;5001827;28;46393;-65
2023/01/20 09:04:59;;;;;;;11.43;8.17;;;2.00;49.20;;;;;;5002091;28;46386;-64
2023/01/20 09:07:25;;;;;;;13.90;8.50;;;2.00;49.60;;;;;;5003590;28;46405;-62
2023/01/20 09:09:51;;;;;;;13.35;8.70;;;2.10;49.80;;;;;;5001212;28;46446;-63
2023/01/20 09:12:17;;;;;;;11.20;7.20;;;2.10;49.60;;;;;;5004738;28;46416;-63
2023/01/20 09:14:43;;;;;;;11.93;7.73;;;2.10;49.60;;;;;;5003225;28;46509;-63
2023/01/20 09:17:08;;;;;;;12.97;7.90;;;2.20;49.80;;;;;;5002390;28;46447;-63
2023/01/20 09:19:34;;;;;;;15.00;9.23;;;2.40;49.90;;;;;;5004764;28;46476;-64
2023/01/20 09:21:59;;;;;;;16.50;7.87;;;2.20;49.70;;;;;;5002677;28;46453;-62
2023/01/20 09:24:25;;;;;;;17.50;8.93;;;2.30;49.70;;;;;;5001332;28;46437;-64
2023/01/20 09:26:51;;;;;;;13.53;8.03;;;2.30;49.40;;;;;;5002729;28;46620;-64
2023/01/20 09:29:19;;;;;;;16.17;9.02;;;2.30;49.60;;;;;;5004088;28;46457;-69
2023/01/20 09:31:56;;;;;;;14.13;8.05;;;2.20;49.90;;;;;;5002882;28;46481;-64
2023/01/20 09:34:23;;;;;;;14.52;9.02;;;2.20;49.80;;;;;;5004869;28;46437;-64
2023/01/20 09:45:39;;;;;;;27.17;13.10;;;2.30;49.80;;;;;;4998281;28;46573;-63
2023/01/20 09:54:04;;;;;;;72.55;21.50;;;2.70;49.00;;;;;;4997606;28;46526;-63
2023/01/20 09:56:38;;;;;;;99.55;26.20;;;2.70;49.00;;;;;;5003873;28;46499;-63
2023/01/20 09:59:13;;;;;;;17.57;8.40;;;2.90;48.80;;;;;;5002418;28;46351;-64
2023/01/20 10:01:47;;;;;;;45.53;14.85;;;3.00;48.50;;;;;;5007531;28;47609;-64
2023/01/20 10:04:35;;;;;;;62.60;20.85;;;3.20;48.10;;;;;;5003497;28;46606;-65
2023/01/20 10:07:22;;;;;;;28.42;12.35;;;3.40;47.40;;;;;;5002355;28;46385;-63
2023/01/20 10:09:57;;;;;;;29.83;14.03;;;3.40;47.00;;;;;;5005924;28;46399;-64
2023/01/20 10:12:49;;;;;;;30.55;13.52;;;3.50;47.10;;;;;;5002401;28;46923;-64
2023/01/20 10:15:21;;;;;;;19.95;11.10;;;3.40;47.00;;;;;;5001377;28;46851;-63
2023/01/20 10:17:59;;;;;;;18.75;9.80;;;3.50;47.10;;;;;;5003797;28;45825;-63
2023/01/20 10:20:54;;;;;;;24.40;12.30;;;3.50;47.10;;;;;;5000797;28;46479;-63
2023/01/20 10:23:26;;;;;;;21.48;10.55;;;3.50;47.10;;;;;;5001902;28;46016;-62
2023/01/20 10:26:09;;;;;;;19.25;9.75;;;3.60;47.20;;;;;;5002557;28;46421;-62
2023/01/20 10:28:44;;;;;;;12.48;8.13;;;3.70;47.20;;;;;;5003163;28;46339;-62
2023/01/20 10:31:12;;;;;;;13.30;7.53;;;3.90;46.60;;;;;;5001907;28;46391;-63
2023/01/20 10:33:42;;;;;;;12.38;7.82;;;3.90;46.70;;;;;;5001421;28;47610;-61
2023/01/20 10:36:18;;;;;;;16.52;10.40;;;3.90;46.50;;;;;;5001851;28;46685;-61
2023/01/20 10:38:54;;;;;;;19.17;10.27;;;3.90;46.60;;;;;;5000768;28;46236;-61
2023/01/20 10:41:45;;;;;;;138.23;48.92;;;3.90;46.60;;;;;;5009638;28;45805;-60
2023/01/20 10:44:13;;;;;;;55.65;25.73;;;3.80;46.80;;;;;;5000225;28;46422;-62
2023/01/20 10:47:07;;;;;;;38.20;21.40;;;3.80;46.60;;;;;;5001074;28;45973;-62
2023/01/20 10:49:44;;;;;;;23.65;14.30;;;3.60;47.20;;;;;;4999504;28;46505;-61
2023/01/20 10:52:35;;;;;;;28.13;15.37;;;3.40;47.00;;;;;;5003789;28;46354;-62
2023/01/20 10:55:19;;;;;;;28.87;14.80;;;3.30;46.90;;;;;;4999566;28;46669;-62
2023/01/20 10:57:53;;;;;;;34.92;16.00;;;3.20;46.80;;;;;;5001282;28;46505;-63
2023/01/20 11:00:23;;;;;;;30.70;15.00;;;3.20;46.80;;;;;;5000452;28;46949;-61
2023/01/20 11:02:51;;;;;;;20.43;11.70;;;3.20;46.80;;;;;;5000291;28;46431;-62
2023/01/20 11:05:26;;;;;;;53.97;21.17;;;3.40;47.00;;;;;;5002044;28;46941;-63
2023/01/20 11:07:55;;;;;;;19.77;10.45;;;3.60;47.10;;;;;;5001038;28;45863;-62
2023/01/20 11:10:23;;;;;;;20.90;11.95;;;3.70;46.40;;;;;;5000208;28;46329;-65
2023/01/20 11:12:54;;;;;;;27.25;13.85;;;3.80;46.40;;;;;;5003038;28;46555;-63
2023/01/20 11:15:30;;;;;;;21.40;12.43;;;3.70;46.20;;;;;;5001912;28;46315;-63
2023/01/20 11:18:14;;;;;;;23.13;13.88;;;3.70;46.20;;;;;;5002031;28;45829;-63
2023/01/20 11:20:45;;;;;;;23.75;13.57;;;3.50;47.10;;;;;;5005040;28;46328;-60
2023/01/20 11:23:47;;;;;;;26.90;13.57;;;3.30;46.90;;;;;;5002527;28;46441;-62
2023/01/20 11:27:00;;;;;;;14.02;9.00;;;3.20;46.80;;;;;;5003377;28;47362;-61
2023/01/20 11:29:29;;;;;;;12.10;8.38;;;3.10;46.60;;;;;;4984206;28;45973;-63
2023/01/20 11:31:55;;;;;;;15.80;9.63;;;3.20;46.80;;;;;;4982701;28;46560;-62
2023/01/20 11:34:31;;;;;;;13.40;9.97;;;3.40;46.90;;;;;;4994374;28;46587;-63
2023/01/20 11:37:08;;;;;;;10.20;7.00;;;3.40;47.00;;;;;;5006069;28;47384;-64
2023/01/20 11:39:49;;;;;;;13.70;8.20;;;3.70;46.30;;;;;;5003352;28;46653;-63
2023/01/20 11:42:23;;;;;;;14.43;8.95;;;3.80;45.90;;;;;;5005002;28;46369;-61
2023/01/20 11:45:00;;;;;;;11.87;8.10;;;4.00;45.90;;;;;;5002193;28;46477;-62
2023/01/20 11:47:35;;;;;;;19.75;8.50;;;4.10;45.60;;;;;;5005032;28;46607;-61
2023/01/20 11:50:03;;;;;;;16.73;8.90;;;4.20;45.50;;;;;;5003758;28;46420;-60
2023/01/20 11:52:31;;;;;;;12.00;8.03;;;4.20;45.40;;;;;;5008773;28;46433;-61
2023/01/20 11:55:06;;;;;;;13.10;7.07;;;4.30;45.10;;;;;;5008864;28;46663;-64
2023/01/20 11:57:32;;;;;;;13.80;7.63;;;4.40;45.00;;;;;;5001215;28;46490;-64
2023/01/20 11:59:58;;;;;;;12.67;7.80;;;4.40;45.00;;;;;;5002816;28;46461;-65
2023/01/20 12:02:26;;;;;;;10.10;7.50;;;4.40;44.80;;;;;;5003104;28;46519;-64
2023/01/20 12:05:02;;;;;;;11.40;6.80;;;4.40;44.60;;;;;;5003074;28;46493;-63
2023/01/20 12:07:31;;;;;;;10.30;7.30;;;4.50;44.30;;;;;;5001607;28;46302;-64
2023/01/20 12:10:05;;;;;;;15.73;6.75;;;4.70;44.20;;;;;;5002667;28;46476;-64
2023/01/20 12:12:39;;;;;;;9.10;7.30;;;4.80;44.00;;;;;;5004399;28;46472;-63
2023/01/20 12:15:22;;;;;;;12.27;7.53;;;4.80;43.90;;;;;;5003505;28;46554;-61
2023/01/20 12:18:03;;;;;;;8.77;6.10;;;4.90;43.80;;;;;;5000603;28;46610;-63
2023/01/20 12:20:49;;;;;;;9.90;6.57;;;4.90;43.80;;;;;;5000902;28;46654;-62
2023/01/20 12:23:34;;;;;;;9.47;6.83;;;4.90;43.70;;;;;;5002436;28;46521;-62
2023/01/20 12:26:04;;;;;;;11.13;7.10;;;4.90;43.60;;;;;;5002281;28;46508;-62
2023/01/20 12:28:35;;;;;;;11.97;7.00;;;4.90;43.80;;;;;;5001730;28;46995;-62
2023/01/20 12:31:03;;;;;;;10.52;6.65;;;4.90;43.50;;;;;;5000233;28;46528;-61
2023/01/20 12:33:42;;;;;;;12.67;7.17;;;4.90;43.30;;;;;;5001045;28;46469;-62
2023/01/20 12:36:08;;;;;;;12.20;7.30;;;4.90;43.20;;;;;;5001489;28;45812;-62
2023/01/20 12:38:51;;;;;;;16.23;8.23;;;4.80;43.20;;;;;;4999657;28;46385;-60
2023/01/20 12:41:29;;;;;;;12.50;8.10;;;4.80;43.20;;;;;;5002460;28;46464;-62
2023/01/20 12:44:12;;;;;;;15.87;8.77;;;4.70;43.60;;;;;;5001210;28;46552;-62
2023/01/20 12:47:11;;;;;;;13.97;7.30;;;4.60;44.00;;;;;;5001411;28;46517;-62
2023/01/20 12:49:52;;;;;;;13.60;7.90;;;4.50;44.10;;;;;;4992027;28;46458;-62
2023/01/20 12:52:42;;;;;;;13.40;8.50;;;4.50;44.00;;;;;;5004092;28;46498;-62
2023/01/20 12:55:36;;;;;;;12.70;8.27;;;4.20;44.40;;;;;;5002659;28;45858;-62
2023/01/20 12:58:14;;;;;;;11.60;7.97;;;4.00;44.80;;;;;;5002186;28;46935;-61
2023/01/20 13:00:51;;;;;;;15.30;9.27;;;3.80;45.10;;;;;;4999960;28;46499;-63
2023/01/20 13:03:41;;;;;;;13.82;8.85;;;3.60;45.60;;;;;;4997535;28;46401;-60
2023/01/20 13:06:41;;;;;;;14.17;8.67;;;3.40;45.80;;;;;;5003296;28;46358;-62
2023/01/20 13:09:39;;;;;;;13.10;8.07;;;3.30;46.10;;;;;;5002589;28;46109;-60
2023/01/20 13:12:23;;;;;;;12.50;7.93;;;3.30;45.90;;;;;;5000903;28;46477;-62
2023/01/20 13:14:58;;;;;;;12.82;8.77;;;3.40;45.80;;;;;;5003713;28;46425;-63
2023/01/20 13:17:33;;;;;;;14.15;8.40;;;3.60;45.20;;;;;;5000395;28;45831;-60
2023/01/20 13:20:01;;;;;;;13.07;8.33;;;3.50;45.00;;;;;;5000709;28;46506;-61